Flight Track Log - Related Links

Times and Time Zones

All times are in EDT time to prevent confusion due to time zone crossing. See the AAL1012 flight status page for this flight to view local times or setup timezone preferences in your user account.

Time Position Orientation Groundspeed Altitude Reporting Facility
EDT Latitude Longitude Course Direction KTS MPH feet Rate Location/Type
Thu 03:32:33 PM 25.8030 -80.2620 90° East 166 191 1,100  Level FlightAware ADS-B
Thu 03:32:48 PM 25.8050 -80.2480 81° East 169 194 1,900 1,867 Climbing FlightAware ADS-B
Thu 03:33:18 PM 25.8080 -80.2210 83° East 206 237 2,500 1,309 Climbing FlightAware ADS-B
Thu 03:33:43 PM 25.8120 -80.1920 81° East 244 281 3,100 1,950 Climbing FlightAware ADS-B
Thu 03:33:58 PM 25.8150 -80.1710 81° East 257 296 3,800 3,000 Climbing FlightAware ADS-B
Thu 03:34:13 PM 25.8230 -80.1530 64° Northeast 261 300 4,600 3,067 Climbing FlightAware ADS-B
Thu 03:34:43 PM 25.8410 -80.1160 62° Northeast 269 310 6,100 2,836 Climbing FlightAware ADS-B
Thu 03:35:08 PM 25.8540 -80.0870 64° Northeast 275 316 7,200 2,836 Climbing FlightAware ADS-B
Thu 03:35:38 PM 25.8730 -80.0470 62° Northeast 283 326 8,700 2,727 Climbing FlightAware ADS-B
Thu 03:36:03 PM 25.8900 -80.0150 59° Northeast 289 333 9,700 1,886 Climbing FlightAware ADS-B
Thu 03:36:48 PM 25.9190 -79.9540 62° Northeast 328 377 10,900 1,694 Climbing FlightAware ADS-B
Thu 03:37:28 PM 25.9500 -79.8890 62° Northeast 356 410 12,100 2,047 Climbing FlightAware ADS-B
Thu 03:38:13 PM 25.9860 -79.8140 62° Northeast 377 434 13,800 2,188 Climbing FlightAware ADS-B
Thu 03:38:53 PM 26.0210 -79.7460 60° Northeast 395 455 15,200 2,250 Climbing FlightAware ADS-B
Thu 03:39:33 PM 26.0700 -79.6870 47° Northeast 403 464 16,800 2,612 Climbing FlightAware ADS-B
Thu 03:40:18 PM 26.1430 -79.6380 31° Northeast 403 464 18,900 2,541 Climbing FlightAware ADS-B
Thu 03:40:58 PM 26.2090 -79.5950 30° Northeast 416 479 20,400 2,118 Climbing FlightAware ADS-B
Thu 03:41:43 PM 26.2820 -79.5470 31° Northeast 426 490 21,900 2,118 Climbing FlightAware ADS-B
Thu 03:42:23 PM 26.3510 -79.5010 31° Northeast 432 497 23,400 1,958 Climbing FlightAware ADS-B
Thu 03:43:18 PM 26.4470 -79.4370 31° Northeast 445 512 25,000 1,680 Climbing FlightAware ADS-B
Thu 03:44:03 PM 26.5300 -79.3830 30° Northeast 451 519 26,200 -185 Climbing FlightAware ADS-B
Thu 03:46:00 PM 26.7381 -79.3272 13° North  Level Estimated
Thu 03:47:00 PM 26.8449 -79.2986 13° North  Level Estimated
Thu 03:48:00 PM 26.9516 -79.2698 13° North  Level Estimated
Thu 03:49:00 PM 27.0583 -79.2410 14° North  Level Estimated
Thu 03:50:00 PM 27.1650 -79.2122 14° North  Level Estimated
Thu 03:51:00 PM 27.2717 -79.1833 14° North  Level Estimated
Thu 03:52:00 PM 27.3784 -79.1543 14° North  Level Estimated
Thu 03:53:00 PM 27.4851 -79.1253 14° North  Level Estimated
Thu 03:54:00 PM 27.5918 -79.0963 14° North  Level Estimated
Thu 03:55:00 PM 27.6985 -79.0671 14° North  Level Estimated
Thu 03:56:00 PM 27.8052 -79.0380 14° North  Level Estimated
Thu 03:57:00 PM 27.9118 -79.0087 14° North  Level Estimated
Thu 03:58:00 PM 28.0185 -78.9794 14° North  Level Estimated
Thu 03:59:00 PM 28.1252 -78.9501 14° North  Level Estimated
Thu 04:00:00 PM 28.2318 -78.9207 14° North  Level Estimated
Thu 04:01:00 PM 28.3384 -78.8912 14° North  Level Estimated
Thu 04:02:00 PM 28.4451 -78.8617 14° North  Level Estimated
Thu 04:03:00 PM 28.5581 -78.8303 14° North  Level Estimated
Thu 04:04:00 PM 28.6711 -78.7989 14° North  Level Estimated
Thu 04:05:00 PM 28.7840 -78.7674 14° North  Level Estimated
Thu 04:06:00 PM 28.8970 -78.7358 14° North  Level Estimated
Thu 04:07:00 PM 29.0100 -78.7042 14° North  Level Estimated
Thu 04:08:00 PM 29.1230 -78.6725 14° North  Level Estimated
Thu 04:09:00 PM 29.2359 -78.6407 14° North  Level Estimated
Thu 04:10:00 PM 29.3489 -78.6089 14° North  Level Estimated
Thu 04:11:00 PM 29.4618 -78.5770 14° North  Level Estimated
Thu 04:12:00 PM 29.5747 -78.5450 14° North  Level Estimated
Thu 04:13:00 PM 29.6877 -78.5129 14° North  Level Estimated
Thu 04:14:00 PM 29.8006 -78.4808 14° North  Level Estimated
Thu 04:15:00 PM 29.9135 -78.4486 14° North  Level Estimated
Thu 04:16:00 PM 30.0264 -78.4163 14° North  Level Estimated
Thu 04:17:00 PM 30.1393 -78.3840 14° North  Level Estimated
Thu 04:18:00 PM 30.2521 -78.3516 14° North  Level Estimated
Thu 04:19:00 PM 30.3650 -78.3191 14° North  Level Estimated
Thu 04:20:00 PM 30.4779 -78.2865 14° North  Level Estimated
Thu 04:21:00 PM 30.5907 -78.2539 14° North  Level Estimated
Thu 04:22:00 PM 30.7036 -78.2212 14° North  Level Estimated
Thu 04:23:00 PM 30.8164 -78.1884 14° North  Level Estimated
Thu 04:24:00 PM 30.9293 -78.1555 14° North  Level Estimated
Thu 04:25:00 PM 31.0421 -78.1225 14° North  Level Estimated
Thu 04:26:00 PM 31.1549 -78.0895 14° North  Level Estimated
Thu 04:27:00 PM 31.2677 -78.0564 14° North  Level Estimated
Thu 04:28:00 PM 31.3805 -78.0232 14° North  Level Estimated
Thu 04:29:00 PM 31.4933 -77.9899 14° North  Level Estimated
Thu 04:30:00 PM 31.6061 -77.9566 14° North  Level Estimated
Thu 04:31:00 PM 31.7189 -77.9232 14° North  Level Estimated
Thu 04:32:00 PM 31.8316 -77.8896 14° North  Level Estimated
Thu 04:33:00 PM 31.9444 -77.8561 14° North  Level Estimated
Thu 04:34:00 PM 32.0572 -77.8224 14° North  Level Estimated
Thu 04:35:00 PM 32.1699 -77.7886 14° North  Level Estimated
Thu 04:36:00 PM 32.2826 -77.7548 14° North  Level Estimated
Thu 04:37:00 PM 32.3953 -77.7209 14° North  Level Estimated
Thu 04:38:00 PM 32.5080 -77.6869 14° North  Level Estimated
Thu 04:39:00 PM 32.6208 -77.6527 14° North  Level Estimated
Thu 04:40:00 PM 32.7334 -77.6186 14° North  Level Estimated
Thu 04:41:00 PM 32.8461 -77.5843 14° North  Level Estimated
Thu 04:42:00 PM 32.9588 -77.5499 14° North  Level Estimated
Thu 04:43:00 PM 33.0715 -77.5155 14° North  Level Estimated
Thu 04:44:00 PM 33.1841 -77.4810 14° North  Level Estimated
Thu 04:45:00 PM 33.2968 -77.4464 14° North  Level Estimated
Thu 04:46:00 PM 33.4094 -77.4117 14° North  Level Estimated
Thu 04:47:00 PM 33.5220 -77.3768 14° North  Level Estimated
Thu 04:48:00 PM 33.6347 -77.3420 14° North  Level Estimated
Thu 04:49:00 PM 33.7473 -77.3070 14° North  Level Estimated
Thu 04:50:00 PM 33.8599 -77.2719 15° North  Level Estimated
Thu 04:51:00 PM 33.9725 -77.2367 15° North  Level Estimated
Thu 04:52:00 PM 34.0850 -77.2015 15° North  Level Estimated
Thu 04:53:00 PM 34.1985 -77.1659 15° North  Level Estimated
Thu 04:54:00 PM 34.3119 -77.1301 15° North  Level Estimated
Thu 04:55:00 PM 34.4253 -77.0943 15° North  Level Estimated
Thu 04:56:00 PM 34.5386 -77.0584 15° North  Level Estimated
Thu 04:57:00 PM 34.6520 -77.0224 15° North  Level Estimated
Thu 04:58:00 PM 34.7654 -76.9863 15° North  Level Estimated
Thu 04:59:00 PM 34.8787 -76.9501 15° North  Level Estimated
Thu 05:00:00 PM 34.9921 -76.9138 15° North  Level Estimated
Thu 05:01:00 PM 35.1054 -76.8774 15° North  Level Estimated
Thu 05:02:00 PM 35.2187 -76.8409 15° North  Level Estimated
Thu 05:03:00 PM 35.3320 -76.8043 15° North  Level Estimated
Thu 05:04:00 PM 35.4453 -76.7675 15° North  Level Estimated
Thu 05:05:00 PM 35.5586 -76.7307 15° North  Level Estimated
Thu 05:06:00 PM 35.6719 -76.6938 15° North  Level Estimated
Thu 05:07:00 PM 35.7851 -76.6568 15° North  Level Estimated
Thu 05:08:00 PM 35.8984 -76.6197 15° North  Level Estimated
Thu 05:09:00 PM 36.0116 -76.5824 15° North  Level Estimated
Thu 05:10:00 PM 36.1249 -76.5451 15° North  Level Estimated
Thu 05:11:00 PM 36.2381 -76.5076 15° North  Level Estimated
Thu 05:12:00 PM 36.3513 -76.4701 15° North  Level Estimated
Thu 05:13:00 PM 36.4662 -76.4318 15° North  Level Estimated
Thu 05:14:00 PM 36.5811 -76.3934 15° North  Level Estimated
Thu 05:15:00 PM 36.6960 -76.3550 15° North  Level Estimated
Thu 05:16:00 PM 36.8109 -76.3164 15° North  Level Estimated
Thu 05:17:00 PM 36.9258 -76.2777 15° North  Level Estimated
Thu 05:18:00 PM 37.0406 -76.2389 15° North  Level Estimated
Thu 05:19:00 PM 37.1555 -76.1999 15° North  Level Estimated
Thu 05:20:00 PM 37.2703 -76.1609 15° North  Level Estimated
Thu 05:21:00 PM 37.3851 -76.1217 15° North  Level Estimated
Thu 05:22:00 PM 37.4999 -76.0824 15° North  Level Estimated
Thu 05:23:00 PM 37.6147 -76.0430 15° North  Level Estimated
Thu 05:24:00 PM 37.7295 -76.0034 15° North  Level Estimated
Thu 05:25:00 PM 37.8443 -75.9638 15° North  Level Estimated
Thu 05:26:00 PM 37.9590 -75.9240 15° North  Level Estimated
Thu 05:27:00 PM 38.0738 -75.8841 15° North  Level Estimated
Thu 05:28:00 PM 38.1885 -75.8440 15° North  Level Estimated
Thu 05:29:00 PM 38.3032 -75.8039 15° North  Level Estimated
Thu 05:30:00 PM 38.4179 -75.7636 15° North  Level Estimated
Thu 05:31:00 PM 38.5326 -75.7232 15° North  Level Estimated
Thu 05:32:00 PM 38.6473 -75.6826 15° North  Level Estimated
Thu 05:33:00 PM 38.7620 -75.6419 15° North  Level Estimated
Thu 05:34:00 PM 38.8766 -75.6011 15° North  Level Estimated
Thu 05:35:00 PM 38.9912 -75.5602 16° North  Level Estimated
Thu 05:36:00 PM 39.1059 -75.5191 16° North  Level Estimated
Thu 05:37:00 PM 39.2205 -75.4779 16° North  Level Estimated
Thu 05:38:00 PM 39.3350 -75.4366 16° North  Level Estimated
Thu 05:39:00 PM 39.4496 -75.3951 16° North  Level Estimated
Thu 05:40:00 PM 39.5642 -75.3535 16° North  Level Estimated
Thu 05:41:00 PM 39.6787 -75.3117 16° North  Level Estimated
Thu 05:42:00 PM 39.7932 -75.2699 16° North  Level Estimated
Thu 05:43:00 PM 39.8722 -75.2409 16° North  Level Estimated
Thu 05:44:00 PM 39.8722 -75.2409 101° East  Level Estimated
Thu 05:45:00 PM 39.8722 -75.2409 101° East  Level Estimated
Thu 05:46:00 PM 39.8722 -75.2409 101° East  Level Estimated
Thu 05:47:00 PM 39.8722 -75.2409 101° East  Level Estimated
Thu 05:48:00 PM 39.8722 -75.2409 101° East  Level Estimated
Thu 05:49:00 PM 39.8722 -75.2409 101° East  Level Estimated
Thu 05:50:00 PM 39.8722 -75.2409 101° East  Level Estimated
Thu 05:51:00 PM 39.8722 -75.2409 101° East  Level Estimated
Thu 05:51:46 PM 39.8453 -75.3489 North 164 189 1,200  Level FAA TRACON SMA TRACON (SMA)
Thu 05:51:48 PM 39.8469 -75.3450 101° East 151 174 900 -1,667 Descending FlightAware ADS-B
Thu 05:52:04 PM 39.8496 -75.3314 75° East 148 170 700 333 Descending FlightAware ADS-B
Thu 05:52:06 PM 39.8489 -75.3336 73° East 157 181 1,000 -667 Climbing FAA TRACON SMA TRACON (SMA)
Thu 05:52:22 PM 39.8526 -75.3158 76° East 145 167 500 -900 Descending FlightAware ADS-B
Thu 05:52:26 PM 39.8528 -75.3142 75° East 149 171 700 -947 Climbing FAA TRACON SMA TRACON (SMA)
Thu 05:52:41 PM 39.8559 -75.2996 75° East 146 168 200 -900 Descending FlightAware ADS-B
Thu 05:52:46 PM 39.8556 -75.3003 75° East 147 169 400  Climbing FAA TRACON SMA TRACON (SMA)
Thu 05:53:06 PM 39.8592 -75.2839 74° East 141 162 200 -375 Descending FAA TRACON SMA TRACON (SMA)
Thu 05:53:18 PM 39.8600 -75.2790 75° East 142 163 200 -300 Level FlightAware ADS-B
Thu 05:53:26 PM 39.8597 -75.2797 80° East 145 167 100 -750 Descending FAA TRACON SMA TRACON (SMA)
Thu 05:55:00 PM 39.8667 -75.2333 North  Level FlightAware Approximate
Thu 05:55:00 PM 39.8667 -75.2333 North  Level FlightAware Approximate
Thu 05:56:00 PM 39.8722 -75.2409 North  Level Estimated
Thu 06:02:00 PM 39.8722 -75.2409 North  Level Estimated
Thu 06:03:00 PM 39.8722 -75.2409 North  Level Estimated
Thu 06:04:00 PM 39.8722 -75.2409 North  Level Estimated
Thu 06:05:00 PM 39.8722 -75.2409 North  Level Estimated
Thu 06:06:00 PM 39.8722 -75.2409 North  Level Estimated
Thu 06:07:00 PM 39.8722 -75.2409 North  Level Estimated
Thu 06:08:00 PM 39.8722 -75.2409 North  Level Estimated
Thu 06:09:00 PM 39.8722 -75.2409 North  Level Estimated

Login

Don't have an account? Register now (free) for customized features, flight alerts, and more!